Time;durP1;ratioP1;P1;durP2;ratioP2;P2;SDS_P1;SDS_P2;PMS_P1;PMS_P2;Temp;Humidity;BMP_temperature;BMP_pressure;BME280_temperature;BME280_humidity;BME280_pressure;Samples;Min_cycle;Max_cycle;Signal;HPM_P1;HPM_P2
2022/04/18 00:01:48;;;;;;;19.35;13.68;;;11.70;50.10;;;;;;5113840;28;20073;-69
2022/04/18 00:04:14;;;;;;;20.02;13.35;;;11.70;50.10;;;;;;5113790;28;20019;-69
2022/04/18 00:06:40;;;;;;;18.13;13.45;;;11.70;50.20;;;;;;5113906;28;20032;-68
2022/04/18 00:09:05;;;;;;;20.17;13.38;;;11.70;50.80;;;;;;5113727;28;20031;-68
2022/04/18 00:11:32;;;;;;;18.58;13.75;;;11.60;50.00;;;;;;5095739;28;20037;-68
2022/04/18 00:13:57;;;;;;;21.63;13.63;;;11.50;49.50;;;;;;5113664;28;20024;-68
2022/04/18 00:16:24;;;;;;;20.33;14.68;;;11.50;50.00;;;;;;5113364;28;20051;-68
2022/04/18 00:18:50;;;;;;;19.05;13.57;;;11.50;50.80;;;;;;5113726;28;20079;-68
2022/04/18 00:21:15;;;;;;;21.23;14.23;;;11.50;50.60;;;;;;5113569;28;20027;-68
2022/04/18 00:23:43;;;;;;;21.52;14.15;;;11.40;50.70;;;;;;5113530;28;20032;-68
2022/04/18 00:26:08;;;;;;;18.80;13.98;;;11.40;50.30;;;;;;5113472;28;20020;-68
2022/04/18 00:28:34;;;;;;;20.63;14.23;;;11.40;50.60;;;;;;5113368;28;20088;-68
2022/04/18 00:31:00;;;;;;;20.98;14.95;;;11.40;50.60;;;;;;5113411;28;20028;-68
2022/04/18 00:33:26;;;;;;;20.40;13.52;;;11.40;50.50;;;;;;5113394;28;20035;-68
2022/04/18 00:35:52;;;;;;;20.52;13.52;;;11.30;50.70;;;;;;5113291;28;20032;-68
2022/04/18 00:38:18;;;;;;;20.40;13.75;;;11.30;50.70;;;;;;5113493;28;20080;-68
2022/04/18 00:40:44;;;;;;;21.73;15.05;;;11.20;50.30;;;;;;5113293;28;20032;-68
2022/04/18 00:43:10;;;;;;;21.02;14.98;;;11.20;50.20;;;;;;5113334;28;20048;-68
2022/04/18 00:45:36;;;;;;;20.60;14.48;;;11.20;51.10;;;;;;5117293;28;20032;-68
2022/04/18 00:48:02;;;;;;;19.52;14.55;;;11.00;51.80;;;;;;5117509;28;20028;-68
2022/04/18 00:50:31;;;;;;;21.65;14.95;;;11.00;51.30;;;;;;5117466;28;20067;-68
2022/04/18 00:52:57;;;;;;;19.92;13.38;;;11.10;51.40;;;;;;5117398;28;20044;-68
2022/04/18 00:55:24;;;;;;;18.23;13.18;;;11.00;51.90;;;;;;5117256;28;20028;-67
2022/04/18 00:57:52;;;;;;;17.77;13.65;;;11.10;51.90;;;;;;5117297;28;20471;-68
2022/04/18 01:00:18;;;;;;;21.42;14.32;;;11.10;51.90;;;;;;5117277;28;20027;-68
2022/04/18 01:02:44;;;;;;;19.67;13.55;;;11.10;52.40;;;;;;5117233;28;20028;-67
2022/04/18 01:05:10;;;;;;;19.60;14.30;;;11.10;52.20;;;;;;5117184;28;20026;-67
2022/04/18 01:07:36;;;;;;;19.30;13.52;;;11.00;52.00;;;;;;5117161;28;20040;-67
2022/04/18 01:10:04;;;;;;;17.42;12.88;;;11.00;52.00;;;;;;5117109;28;20020;-67
2022/04/18 01:12:30;;;;;;;18.15;13.25;;;11.00;52.10;;;;;;5117161;28;20031;-67
2022/04/18 01:14:55;;;;;;;16.75;13.15;;;11.00;52.70;;;;;;5116766;28;20048;-67
2022/04/18 01:17:21;;;;;;;17.10;12.38;;;10.90;52.50;;;;;;5116888;28;20043;-67
2022/04/18 01:19:46;;;;;;;18.63;12.85;;;10.80;52.20;;;;;;5117050;28;20027;-68
2022/04/18 01:22:12;;;;;;;16.95;12.18;;;10.90;52.00;;;;;;5116864;28;20032;-67
2022/04/18 01:30:10;;;;;;;17.83;11.57;;;10.90;52.00;;;;;;5116947;28;20103;-68
2022/04/18 01:32:35;;;;;;;15.10;11.20;;;10.90;51.70;;;;;;5116661;28;20024;-67
2022/04/18 01:35:01;;;;;;;13.70;10.50;;;10.90;51.90;;;;;;5116562;28;20032;-67
2022/04/18 01:37:27;;;;;;;13.85;9.70;;;10.90;51.30;;;;;;5116544;28;20016;-67
2022/04/18 01:39:52;;;;;;;13.52;9.07;;;10.90;50.70;;;;;;5116256;28;20040;-67
2022/04/18 01:42:18;;;;;;;12.20;8.75;;;11.00;50.50;;;;;;5116487;28;20044;-68
2022/04/18 01:44:44;;;;;;;12.20;9.02;;;11.00;49.90;;;;;;5116410;28;20024;-69
2022/04/18 01:47:09;;;;;;;12.90;9.48;;;11.00;50.50;;;;;;5116403;28;20051;-68
2022/04/18 01:49:35;;;;;;;12.90;9.43;;;11.00;50.30;;;;;;5116308;28;20039;-67
2022/04/18 01:52:01;;;;;;;12.45;9.15;;;10.90;50.40;;;;;;5116337;28;20043;-67
2022/04/18 01:54:26;;;;;;;12.85;9.15;;;10.90;50.30;;;;;;5116267;28;20032;-68
2022/04/18 01:56:52;;;;;;;12.13;8.45;;;10.80;50.90;;;;;;5114969;28;20028;-68
2022/04/18 01:59:17;;;;;;;13.73;9.32;;;10.70;50.80;;;;;;5116142;28;20029;-68
2022/04/18 02:01:43;;;;;;;12.10;8.85;;;10.70;51.20;;;;;;5116096;28;20036;-68
2022/04/18 02:04:09;;;;;;;13.35;8.77;;;10.70;51.90;;;;;;5116069;28;20028;-68
2022/04/18 02:06:34;;;;;;;11.95;9.27;;;10.60;51.40;;;;;;5115995;28;20031;-68
2022/04/18 02:09:01;;;;;;;13.85;9.05;;;10.50;52.00;;;;;;5115940;28;20044;-68
2022/04/18 02:11:26;;;;;;;11.80;7.95;;;10.50;51.80;;;;;;5115932;28;20057;-68
2022/04/18 02:13:52;;;;;;;12.95;8.40;;;10.40;51.20;;;;;;5115871;28;20036;-68
2022/04/18 02:16:20;;;;;;;12.13;8.18;;;10.40;52.50;;;;;;5115599;28;20499;-68
2022/04/18 02:18:46;;;;;;;11.85;7.38;;;10.50;51.70;;;;;;5115772;28;20028;-68
2022/04/18 02:21:12;;;;;;;11.65;7.50;;;10.60;51.50;;;;;;5115691;28;20027;-68
2022/04/18 02:23:41;;;;;;;11.55;7.85;;;10.60;51.10;;;;;;5115814;28;20031;-68
2022/04/18 02:26:07;;;;;;;11.48;8.02;;;10.50;50.60;;;;;;5115610;28;20042;-68
2022/04/18 02:28:33;;;;;;;11.00;7.40;;;10.50;51.50;;;;;;5115504;28;20044;-68
2022/04/18 02:30:59;;;;;;;11.73;7.15;;;10.30;52.30;;;;;;5115537;28;20035;-68
2022/04/18 02:33:24;;;;;;;11.38;7.85;;;10.20;52.30;;;;;;5115469;28;20046;-68
2022/04/18 02:35:50;;;;;;;11.52;7.63;;;10.10;52.50;;;;;;5115412;28;20023;-68
2022/04/18 02:38:17;;;;;;;12.25;7.18;;;10.10;52.60;;;;;;5115421;28;20541;-68
2022/04/18 02:40:44;;;;;;;8.38;6.32;;;10.00;52.20;;;;;;5115358;28;20019;-68
2022/04/18 02:43:09;;;;;;;11.40;6.82;;;10.00;51.40;;;;;;5097581;28;20020;-68
2022/04/18 02:45:35;;;;;;;11.63;7.28;;;10.00;52.40;;;;;;5097313;28;20035;-68
2022/04/18 02:48:01;;;;;;;11.45;7.22;;;10.00;51.60;;;;;;5115184;28;20027;-68
2022/04/18 02:50:27;;;;;;;10.63;7.45;;;10.00;53.30;;;;;;5115260;28;20024;-68
2022/04/18 02:52:53;;;;;;;12.07;7.07;;;9.90;53.70;;;;;;5114760;28;20032;-68
2022/04/18 02:55:19;;;;;;;10.73;6.78;;;9.80;53.30;;;;;;5114999;28;20024;-67
2022/04/18 02:57:44;;;;;;;9.27;7.05;;;9.80;52.90;;;;;;5115004;28;20024;-68
2022/04/18 03:00:11;;;;;;;11.10;7.10;;;9.90;52.60;;;;;;5114987;28;20036;-67
2022/04/18 03:02:37;;;;;;;9.48;6.65;;;9.90;52.30;;;;;;5115090;28;20055;-67
2022/04/18 03:05:05;;;;;;;9.63;6.97;;;9.80;52.60;;;;;;5114887;28;20024;-68
2022/04/18 03:07:31;;;;;;;9.77;7.15;;;9.70;52.40;;;;;;5114728;28;20036;-68
2022/04/18 03:09:57;;;;;;;11.00;7.00;;;9.70;51.60;;;;;;5114766;28;20047;-68
2022/04/18 03:12:23;;;;;;;9.57;7.57;;;9.80;51.10;;;;;;5096821;28;20054;-68
2022/04/18 03:14:49;;;;;;;10.63;7.63;;;9.90;50.50;;;;;;5114703;28;20035;-67
2022/04/18 03:17:15;;;;;;;12.00;8.48;;;9.80;50.30;;;;;;5114366;28;20040;-68
2022/04/18 03:19:41;;;;;;;13.30;8.32;;;9.70;50.50;;;;;;5114616;28;20032;-68
2022/04/18 03:22:07;;;;;;;12.30;7.32;;;9.80;50.80;;;;;;5114552;28;20055;-68
2022/04/18 03:24:33;;;;;;;10.50;7.50;;;9.80;51.00;;;;;;5114508;28;20076;-68
2022/04/18 03:27:00;;;;;;;13.40;7.68;;;9.70;52.50;;;;;;5114497;28;20031;-68
2022/04/18 03:29:26;;;;;;;11.63;7.10;;;9.60;52.10;;;;;;5114350;28;20020;-68
2022/04/18 03:31:53;;;;;;;8.75;6.50;;;9.60;52.60;;;;;;5114362;28;20043;-69
2022/04/18 03:34:19;;;;;;;11.65;7.30;;;9.60;51.60;;;;;;5114404;28;20031;-69
2022/04/18 03:42:31;;;;;;;9.57;6.20;;;9.50;52.60;;;;;;5032198;28;20030;-68
2022/04/18 03:45:03;;;;;;;12.45;6.38;;;9.50;51.10;;;;;;5097362;28;20032;-68
2022/04/18 03:47:29;;;;;;;9.95;6.13;;;9.40;51.30;;;;;;5114172;28;20020;-68
2022/04/18 03:49:55;;;;;;;9.85;6.30;;;9.30;53.50;;;;;;5114059;28;20024;-68
2022/04/18 03:52:22;;;;;;;11.88;6.90;;;9.20;52.30;;;;;;5113984;28;20024;-68
2022/04/18 03:54:48;;;;;;;10.45;6.07;;;9.20;52.50;;;;;;5114090;28;20044;-68
2022/04/18 03:57:14;;;;;;;8.65;5.72;;;9.20;53.20;;;;;;5113825;28;20059;-68
2022/04/18 03:59:40;;;;;;;8.77;5.75;;;9.10;53.40;;;;;;5113852;28;20028;-68
2022/04/18 04:02:06;;;;;;;10.13;5.95;;;9.10;52.80;;;;;;5113805;28;20150;-68
2022/04/18 04:04:32;;;;;;;10.45;6.38;;;9.00;53.80;;;;;;5113844;28;20024;-68
2022/04/18 04:06:58;;;;;;;10.68;6.03;;;9.00;54.20;;;;;;5113793;28;20028;-68
2022/04/18 04:09:24;;;;;;;8.25;5.90;;;8.90;54.00;;;;;;5113729;28;20024;-68
2022/04/18 04:11:51;;;;;;;8.82;6.00;;;8.90;53.80;;;;;;5113724;28;20050;-68
2022/04/18 04:14:17;;;;;;;10.52;6.82;;;8.80;53.60;;;;;;5095726;28;20062;-68
2022/04/18 04:16:42;;;;;;;8.23;6.13;;;8.80;54.70;;;;;;5113285;28;20040;-68
2022/04/18 04:19:08;;;;;;;9.02;6.10;;;8.80;54.60;;;;;;5112971;28;20057;-68
2022/04/18 04:21:35;;;;;;;8.02;5.90;;;8.80;55.00;;;;;;5113538;28;20039;-68
2022/04/18 04:24:01;;;;;;;10.40;6.20;;;8.80;55.20;;;;;;5113546;28;20016;-68
2022/04/18 04:26:27;;;;;;;10.50;6.05;;;8.70;55.50;;;;;;5113465;28;20023;-69
2022/04/18 04:28:53;;;;;;;8.65;6.63;;;8.60;54.80;;;;;;5113377;28;20032;-69
2022/04/18 04:31:18;;;;;;;8.38;5.90;;;8.50;55.00;;;;;;5095745;28;20023;-69
2022/04/18 04:33:44;;;;;;;9.25;5.72;;;8.40;56.00;;;;;;5113415;28;20030;-68
2022/04/18 04:36:12;;;;;;;9.02;6.10;;;8.40;56.20;;;;;;5113323;28;20388;-69
2022/04/18 04:38:37;;;;;;;11.68;6.13;;;8.40;55.90;;;;;;5113366;28;20027;-69
2022/04/18 04:41:03;;;;;;;8.25;6.10;;;8.40;56.10;;;;;;5113315;28;20033;-69
2022/04/18 04:43:29;;;;;;;8.25;5.60;;;8.30;55.40;;;;;;5113268;28;20029;-69
2022/04/18 04:45:56;;;;;;;8.48;6.00;;;8.30;55.40;;;;;;5113292;28;20055;-68
2022/04/18 04:48:25;;;;;;;8.25;5.63;;;8.40;55.80;;;;;;5113261;28;20027;-69
2022/04/18 04:50:51;;;;;;;9.40;6.03;;;8.40;56.30;;;;;;5113261;28;20025;-69
2022/04/18 04:53:16;;;;;;;9.60;5.63;;;8.20;56.50;;;;;;5113226;28;20059;-68
2022/04/18 04:55:43;;;;;;;8.63;5.65;;;8.20;56.70;;;;;;5113124;28;20040;-68
2022/04/18 04:58:09;;;;;;;12.57;6.43;;;8.20;56.90;;;;;;5113275;28;20480;-69
2022/04/18 05:00:36;;;;;;;10.07;6.20;;;8.20;56.80;;;;;;5113186;28;20020;-69
2022/04/18 05:03:01;;;;;;;9.20;5.75;;;8.20;56.50;;;;;;5113146;28;20032;-69
2022/04/18 05:05:27;;;;;;;7.50;5.78;;;8.30;57.00;;;;;;5113100;28;20020;-68
2022/04/18 05:07:53;;;;;;;7.60;5.65;;;8.30;56.80;;;;;;5113100;28;20024;-70
2022/04/18 05:10:19;;;;;;;7.93;5.70;;;8.30;57.10;;;;;;5095158;28;20039;-68
2022/04/18 05:12:44;;;;;;;11.50;5.90;;;8.30;57.60;;;;;;5113164;28;20028;-69
2022/04/18 05:15:10;;;;;;;9.60;5.72;;;8.30;57.40;;;;;;5112820;28;20032;-68
2022/04/18 05:17:36;;;;;;;7.47;4.85;;;8.20;57.70;;;;;;5112826;28;20056;-68
2022/04/18 05:20:03;;;;;;;10.10;5.50;;;8.20;58.10;;;;;;5112993;28;20032;-68
2022/04/18 05:22:29;;;;;;;11.60;6.25;;;8.10;57.70;;;;;;5112980;28;20028;-68
2022/04/18 05:24:57;;;;;;;10.98;6.30;;;8.00;57.70;;;;;;5112933;28;20050;-68
2022/04/18 05:27:23;;;;;;;11.15;5.57;;;8.10;57.70;;;;;;5112857;28;20028;-68
2022/04/18 05:29:49;;;;;;;8.02;5.30;;;8.20;57.60;;;;;;5113539;28;20024;-67
2022/04/18 05:32:15;;;;;;;7.63;5.43;;;8.30;57.90;;;;;;5116720;28;20039;-69
2022/04/18 05:34:41;;;;;;;8.90;5.68;;;8.30;58.00;;;;;;5116697;28;20040;-69
2022/04/18 05:37:07;;;;;;;8.07;5.90;;;8.20;58.40;;;;;;5116497;28;20043;-69
2022/04/18 05:39:33;;;;;;;8.48;6.13;;;8.20;58.40;;;;;;5116570;28;20548;-68
2022/04/18 05:41:58;;;;;;;10.05;5.32;;;8.30;58.40;;;;;;5116526;28;20080;-68
2022/04/18 05:44:24;;;;;;;8.23;5.80;;;8.40;58.90;;;;;;5116461;28;20475;-67
2022/04/18 05:46:50;;;;;;;9.50;5.80;;;8.50;58.40;;;;;;5116437;28;20024;-68
2022/04/18 05:49:16;;;;;;;7.10;5.32;;;8.70;58.00;;;;;;5116384;28;20027;-68
2022/04/18 05:51:42;;;;;;;8.38;5.70;;;8.80;57.40;;;;;;5116305;28;20028;-67
2022/04/18 05:54:08;;;;;;;9.18;5.30;;;8.90;57.60;;;;;;5116272;28;20035;-67
2022/04/18 05:56:34;;;;;;;8.20;5.32;;;8.90;57.80;;;;;;5116254;28;20056;-69
2022/04/18 05:59:00;;;;;;;7.70;5.72;;;8.90;57.80;;;;;;5116149;28;20039;-69
2022/04/18 06:01:28;;;;;;;9.48;5.30;;;8.90;57.80;;;;;;5116241;28;20059;-68
2022/04/18 06:03:54;;;;;;;7.00;4.80;;;9.00;57.40;;;;;;5116071;28;20069;-68
2022/04/18 06:06:20;;;;;;;6.15;4.65;;;9.10;56.50;;;;;;5116093;28;20020;-69
2022/04/18 06:08:47;;;;;;;5.90;4.65;;;9.20;56.20;;;;;;5116024;28;20088;-68
2022/04/18 06:11:13;;;;;;;7.13;4.50;;;9.30;55.70;;;;;;5115910;28;20024;-69
2022/04/18 06:13:39;;;;;;;8.82;4.18;;;9.30;55.60;;;;;;5115833;28;20036;-68
2022/04/18 06:16:05;;;;;;;6.22;4.28;;;9.40;55.10;;;;;;5115565;28;20044;-70
2022/04/18 06:18:31;;;;;;;5.45;3.97;;;9.50;54.40;;;;;;5115860;28;20020;-67
2022/04/18 06:20:56;;;;;;;7.75;4.22;;;9.60;54.10;;;;;;5115715;28;20072;-69
2022/04/18 06:23:22;;;;;;;6.22;4.30;;;9.70;54.00;;;;;;5115666;28;20031;-69
2022/04/18 06:25:49;;;;;;;7.25;3.83;;;9.80;54.30;;;;;;5115777;28;20028;-69
2022/04/18 06:28:14;;;;;;;6.55;4.30;;;9.90;53.40;;;;;;5115491;28;20023;-69
2022/04/18 06:30:40;;;;;;;6.53;4.13;;;10.00;54.40;;;;;;5115575;28;20028;-69
2022/04/18 06:33:11;;;;;;;8.10;4.43;;;10.10;54.70;;;;;;5097633;28;20024;-69
2022/04/18 06:35:37;;;;;;;6.63;3.95;;;10.10;54.50;;;;;;5115436;28;20031;-69
2022/04/18 06:38:03;;;;;;;7.13;4.22;;;10.20;52.80;;;;;;5115421;28;20054;-69
2022/04/18 06:40:28;;;;;;;7.95;4.38;;;10.30;52.90;;;;;;5115362;28;20024;-69
2022/04/18 06:42:54;;;;;;;6.45;4.20;;;10.40;53.40;;;;;;5114731;28;20020;-69
2022/04/18 06:45:19;;;;;;;7.63;4.10;;;10.50;53.50;;;;;;5115284;28;20039;-69
2022/04/18 06:47:46;;;;;;;7.13;3.95;;;10.60;54.00;;;;;;5097303;28;20036;-69
2022/04/18 06:50:12;;;;;;;6.38;4.13;;;10.70;53.40;;;;;;5115208;28;20029;-69
2022/04/18 06:52:49;;;;;;;8.43;4.63;;;10.80;53.10;;;;;;5115189;28;20020;-69
2022/04/18 06:55:16;;;;;;;6.93;4.32;;;10.90;52.60;;;;;;5115040;28;20026;-68
2022/04/18 06:57:42;;;;;;;6.18;4.03;;;11.00;49.60;;;;;;5115033;28;20020;-69
2022/04/18 07:00:09;;;;;;;5.70;3.83;;;11.00;49.20;;;;;;5115015;28;20043;-68
2022/04/18 07:02:35;;;;;;;6.10;4.10;;;11.10;49.10;;;;;;5114956;28;20043;-69
2022/04/18 07:05:01;;;;;;;6.45;4.40;;;11.20;48.60;;;;;;5114600;28;20050;-69
2022/04/18 07:07:26;;;;;;;6.72;4.07;;;11.20;47.10;;;;;;5114955;28;20035;-69
2022/04/18 07:09:52;;;;;;;5.35;3.80;;;11.30;47.60;;;;;;5114785;28;20036;-68
2022/04/18 07:12:22;;;;;;;6.05;3.97;;;11.40;47.70;;;;;;5114760;28;20036;-69
2022/04/18 07:14:48;;;;;;;8.68;4.25;;;11.50;49.20;;;;;;5114677;28;20020;-68
2022/04/18 07:17:13;;;;;;;7.10;4.00;;;11.50;47.10;;;;;;5096580;28;20052;-68
2022/04/18 07:19:39;;;;;;;7.47;4.28;;;11.70;47.20;;;;;;5096509;28;20031;-68
2022/04/18 07:22:06;;;;;;;8.27;4.25;;;11.80;47.30;;;;;;5114546;28;20024;-68
2022/04/18 07:24:31;;;;;;;6.97;4.38;;;11.90;47.30;;;;;;5114558;28;20034;-68
2022/04/18 07:27:00;;;;;;;5.40;3.70;;;11.90;49.00;;;;;;5114497;28;20048;-68
2022/04/18 07:29:27;;;;;;;8.55;4.28;;;12.00;47.10;;;;;;5114323;28;20035;-68
2022/04/18 07:31:53;;;;;;;8.00;4.22;;;12.10;46.20;;;;;;5114406;28;20031;-68
2022/04/18 07:34:19;;;;;;;8.82;3.92;;;12.10;46.80;;;;;;5114331;28;20064;-68
2022/04/18 07:36:44;;;;;;;8.43;4.15;;;12.30;45.70;;;;;;5114201;28;20057;-68
2022/04/18 07:39:10;;;;;;;6.55;4.30;;;12.30;45.20;;;;;;5114294;28;20028;-68
2022/04/18 07:41:36;;;;;;;6.93;3.90;;;12.40;46.00;;;;;;5114209;28;20024;-68
2022/04/18 07:44:03;;;;;;;7.70;4.35;;;12.60;46.40;;;;;;5114198;28;20049;-68
2022/04/18 07:46:29;;;;;;;6.53;3.83;;;12.70;45.80;;;;;;5114121;28;20028;-68
2022/04/18 07:48:56;;;;;;;6.28;4.00;;;12.80;47.40;;;;;;5114118;28;20039;-68
2022/04/18 07:51:40;;;;;;;5.53;4.22;;;12.90;46.50;;;;;;5114016;28;20032;-68
2022/04/18 07:54:09;;;;;;;6.38;4.28;;;13.00;45.60;;;;;;5113201;28;20119;-68
2022/04/18 07:56:35;;;;;;;6.72;4.10;;;13.10;44.30;;;;;;5113874;28;20020;-68
2022/04/18 07:59:01;;;;;;;5.88;4.05;;;13.20;44.40;;;;;;5096089;28;20076;-69
2022/04/18 08:01:27;;;;;;;10.32;4.80;;;13.30;42.90;;;;;;5113883;28;20021;-68
2022/04/18 08:03:54;;;;;;;5.68;4.40;;;13.40;43.80;;;;;;5113806;28;20083;-68
2022/04/18 08:06:20;;;;;;;8.80;4.70;;;13.60;44.70;;;;;;5113794;28;20474;-69
2022/04/18 08:08:46;;;;;;;6.85;4.63;;;13.60;41.30;;;;;;5113730;28;20077;-68
2022/04/18 08:11:14;;;;;;;6.22;4.78;;;13.70;43.10;;;;;;5113689;28;20047;-68
2022/04/18 08:13:40;;;;;;;5.95;4.20;;;13.80;42.90;;;;;;5113668;28;20040;-68
2022/04/18 08:16:07;;;;;;;7.47;4.25;;;13.90;40.80;;;;;;5113368;28;20055;-68
2022/04/18 08:18:36;;;;;;;7.75;4.72;;;14.00;41.90;;;;;;5113604;28;20028;-68
2022/04/18 08:21:02;;;;;;;7.05;4.30;;;14.20;42.00;;;;;;5113518;28;20027;-68
2022/04/18 08:23:28;;;;;;;9.38;5.00;;;14.30;42.00;;;;;;5113541;28;20107;-68
2022/04/18 08:25:53;;;;;;;7.13;3.95;;;14.40;41.00;;;;;;5113528;28;20036;-68
2022/04/18 08:28:19;;;;;;;5.65;3.70;;;14.50;41.80;;;;;;5113382;28;20036;-68
2022/04/18 08:30:45;;;;;;;7.20;4.40;;;14.60;41.20;;;;;;5113506;28;20032;-68
2022/04/18 08:33:10;;;;;;;7.10;3.80;;;14.60;40.20;;;;;;5113415;28;20023;-68
2022/04/18 08:35:36;;;;;;;5.28;3.95;;;14.70;40.30;;;;;;5078699;28;20035;-68
2022/04/18 08:38:02;;;;;;;5.50;3.80;;;14.70;38.70;;;;;;5113356;28;20036;-68
2022/04/18 08:40:27;;;;;;;5.53;3.70;;;14.80;39.60;;;;;;5113317;28;20027;-68
2022/04/18 08:42:57;;;;;;;5.70;3.60;;;15.00;39.90;;;;;;5113347;28;20028;-68
2022/04/18 08:45:24;;;;;;;4.63;3.72;;;15.10;41.00;;;;;;5113457;28;20096;-68
2022/04/18 08:53:29;;;;;;;5.35;3.47;;;15.30;39.40;;;;;;5113384;28;20058;-69
2022/04/18 08:55:56;;;;;;;7.53;3.47;;;15.40;37.70;;;;;;5113174;28;20024;-69
2022/04/18 08:58:23;;;;;;;5.35;3.22;;;15.50;38.90;;;;;;5113109;28;20032;-69
2022/04/18 09:00:50;;;;;;;5.75;3.67;;;15.60;35.80;;;;;;5113121;28;20052;-69
2022/04/18 09:03:15;;;;;;;7.05;3.65;;;15.70;37.90;;;;;;5095276;28;20091;-69
2022/04/18 09:05:41;;;;;;;6.70;3.38;;;15.70;38.10;;;;;;5115536;28;20024;-68
2022/04/18 09:08:10;;;;;;;4.75;3.60;;;15.70;37.80;;;;;;5099140;28;20028;-69
2022/04/18 09:10:37;;;;;;;5.30;3.78;;;15.80;36.90;;;;;;5117069;28;20032;-69
2022/04/18 09:13:04;;;;;;;7.35;3.85;;;15.90;37.20;;;;;;5117070;28;20051;-69
2022/04/18 09:15:38;;;;;;;5.03;3.30;;;16.00;36.00;;;;;;5117022;28;20024;-68
2022/04/18 09:18:15;;;;;;;6.25;3.80;;;16.00;35.60;;;;;;5099016;28;20032;-69
2022/04/18 09:20:51;;;;;;;6.07;4.00;;;16.10;34.30;;;;;;5116902;28;20028;-69
2022/04/18 09:23:24;;;;;;;7.20;3.72;;;16.20;35.20;;;;;;5116873;28;20413;-69
2022/04/18 09:25:54;;;;;;;6.28;3.55;;;16.20;34.60;;;;;;5116872;28;20016;-69
2022/04/18 09:28:32;;;;;;;7.40;3.75;;;16.30;35.50;;;;;;5116635;28;20020;-68
2022/04/18 09:31:10;;;;;;;5.30;3.50;;;16.40;34.50;;;;;;5098705;28;20031;-69
2022/04/18 09:33:42;;;;;;;4.95;3.38;;;16.50;37.50;;;;;;5116650;28;20417;-69
2022/04/18 09:36:17;;;;;;;5.47;3.05;;;16.50;34.90;;;;;;5116476;28;20063;-69
2022/04/18 09:38:48;;;;;;;5.93;3.60;;;16.70;34.50;;;;;;5116434;28;20051;-69
2022/04/18 09:41:16;;;;;;;4.95;3.33;;;16.80;33.30;;;;;;5116554;28;20019;-69
2022/04/18 09:43:49;;;;;;;8.73;3.92;;;16.70;31.70;;;;;;5116477;28;20023;-69
2022/04/18 09:46:15;;;;;;;4.60;3.55;;;16.80;33.70;;;;;;5116436;28;20028;-69
2022/04/18 09:48:42;;;;;;;5.10;3.63;;;16.90;33.90;;;;;;5098542;28;20043;-69
2022/04/18 09:51:27;;;;;;;4.65;3.15;;;17.00;33.70;;;;;;5116333;28;20024;-69
2022/04/18 09:53:55;;;;;;;5.07;3.25;;;17.10;34.80;;;;;;5116406;28;20024;-69
2022/04/18 09:56:23;;;;;;;6.03;3.47;;;17.30;32.50;;;;;;5116162;28;20031;-68
2022/04/18 09:58:49;;;;;;;4.93;3.15;;;17.30;32.20;;;;;;5116281;28;20044;-68
2022/04/18 10:01:16;;;;;;;4.70;3.20;;;17.30;30.50;;;;;;5116159;28;20051;-68
2022/04/18 10:03:43;;;;;;;5.60;3.17;;;17.40;32.60;;;;;;5116143;28;20046;-68
2022/04/18 10:06:10;;;;;;;3.33;2.58;;;17.40;32.90;;;;;;5116101;28;20036;-69
2022/04/18 10:08:37;;;;;;;4.57;3.30;;;17.40;30.60;;;;;;5116034;28;20016;-69
2022/04/18 10:11:05;;;;;;;6.00;3.03;;;17.50;30.00;;;;;;5116008;28;20516;-69
2022/04/18 10:13:31;;;;;;;3.40;2.70;;;17.50;30.00;;;;;;5115935;28;20020;-68
2022/04/18 10:15:59;;;;;;;4.90;2.88;;;17.50;29.30;;;;;;5115187;28;20040;-69
2022/04/18 10:18:25;;;;;;;4.53;3.00;;;17.60;30.90;;;;;;5097522;28;20372;-69
2022/04/18 10:21:06;;;;;;;4.57;3.00;;;17.80;31.20;;;;;;5115776;28;20075;-69
2022/04/18 10:24:01;;;;;;;3.85;2.67;;;17.80;31.60;;;;;;5115717;28;20057;-69
2022/04/18 10:26:38;;;;;;;5.38;3.10;;;17.90;32.60;;;;;;5115703;28;20087;-69
2022/04/18 10:29:07;;;;;;;4.68;3.20;;;17.80;29.00;;;;;;5115551;28;20032;-69
2022/04/18 10:31:37;;;;;;;5.22;2.72;;;17.80;30.60;;;;;;5115623;28;20048;-69
2022/04/18 10:34:04;;;;;;;5.18;3.38;;;17.90;30.30;;;;;;5115574;28;20080;-69
2022/04/18 10:36:31;;;;;;;4.82;3.10;;;18.00;32.70;;;;;;5115436;28;20047;-70
2022/04/18 10:39:03;;;;;;;4.00;2.90;;;18.20;30.80;;;;;;5115449;28;20024;-69
2022/04/18 10:41:38;;;;;;;6.97;3.13;;;18.20;29.30;;;;;;5115455;28;20088;-69
2022/04/18 10:44:08;;;;;;;6.55;3.03;;;18.20;30.90;;;;;;5115414;28;20077;-69
2022/04/18 10:46:34;;;;;;;6.28;3.15;;;18.20;29.80;;;;;;5115283;28;20027;-69
2022/04/18 10:49:12;;;;;;;4.35;3.03;;;18.20;28.60;;;;;;5115245;28;20035;-69
2022/04/18 10:51:40;;;;;;;5.30;3.55;;;18.40;29.80;;;;;;5115097;28;20044;-70
2022/04/18 10:54:08;;;;;;;5.47;3.20;;;18.50;30.60;;;;;;5097245;28;20020;-70
2022/04/18 10:57:11;;;;;;;4.22;3.05;;;18.50;29.80;;;;;;5115002;28;20032;-70
2022/04/18 10:59:42;;;;;;;4.65;2.65;;;18.50;30.00;;;;;;5115048;28;20016;-70
2022/04/18 11:02:29;;;;;;;4.40;2.53;;;18.60;29.70;;;;;;5115036;28;20019;-70
2022/04/18 11:04:54;;;;;;;5.20;3.08;;;18.70;28.90;;;;;;5114807;28;20020;-68
2022/04/18 11:07:40;;;;;;;4.15;2.80;;;18.80;28.00;;;;;;5114840;28;20036;-69
2022/04/18 11:10:20;;;;;;;3.92;2.55;;;18.90;28.50;;;;;;5114837;28;20045;-69
2022/04/18 11:12:45;;;;;;;5.47;3.28;;;18.80;26.90;;;;;;5114803;28;20054;-68
2022/04/18 11:15:11;;;;;;;4.38;2.92;;;18.90;28.00;;;;;;5114746;28;20024;-69
2022/04/18 11:17:38;;;;;;;4.88;2.95;;;19.00;28.60;;;;;;5114359;28;20147;-69
2022/04/18 11:20:29;;;;;;;4.63;3.22;;;19.10;28.00;;;;;;5114658;28;20020;-69
2022/04/18 11:23:17;;;;;;;4.60;2.95;;;19.10;28.20;;;;;;5114601;28;20019;-69
2022/04/18 11:25:54;;;;;;;4.35;3.10;;;19.10;29.20;;;;;;5114464;28;20055;-69
2022/04/18 11:28:21;;;;;;;3.78;2.72;;;19.00;26.70;;;;;;5114381;28;20027;-68
2022/04/18 11:30:46;;;;;;;5.20;2.92;;;19.00;28.60;;;;;;5114329;28;20020;-69
2022/04/18 11:33:12;;;;;;;5.07;2.97;;;19.20;28.80;;;;;;5114367;28;20028;-69
2022/04/18 11:35:38;;;;;;;6.03;3.10;;;19.20;27.60;;;;;;5096252;28;20099;-68
2022/04/18 11:38:08;;;;;;;6.13;3.55;;;19.20;27.60;;;;;;5096326;28;20038;-68
2022/04/18 11:40:40;;;;;;;4.40;3.00;;;19.40;28.90;;;;;;5114244;28;20025;-69
2022/04/18 11:43:17;;;;;;;4.82;3.10;;;19.60;29.40;;;;;;5114122;28;20086;-69
2022/04/18 11:45:44;;;;;;;4.47;3.33;;;19.80;29.60;;;;;;5096218;28;20138;-69
2022/04/18 11:48:13;;;;;;;4.22;2.65;;;19.80;30.10;;;;;;5114269;28;20035;-70
2022/04/18 11:50:43;;;;;;;4.82;2.85;;;19.70;27.90;;;;;;5114224;28;20028;-70
2022/04/18 11:53:11;;;;;;;4.75;3.00;;;19.80;27.50;;;;;;5114043;28;20032;-69
2022/04/18 11:55:44;;;;;;;4.53;2.90;;;19.90;29.70;;;;;;5113843;28;20020;-70
2022/04/18 11:58:11;;;;;;;4.55;2.85;;;20.10;28.90;;;;;;5114005;28;20055;-69
2022/04/18 12:08:51;;;;;;;5.28;3.20;;;20.10;29.10;;;;;;5113910;28;20051;-69
2022/04/18 12:11:16;;;;;;;5.35;2.67;;;20.30;28.90;;;;;;5113799;28;20028;-69
2022/04/18 12:13:43;;;;;;;4.03;2.90;;;20.10;26.70;;;;;;5113667;28;20036;-69
2022/04/18 12:16:10;;;;;;;3.88;3.00;;;20.10;27.50;;;;;;5113405;28;20064;-69
2022/04/18 12:18:35;;;;;;;5.18;2.90;;;19.90;26.40;;;;;;5113623;28;20024;-69
2022/04/18 12:21:01;;;;;;;5.03;3.10;;;20.00;28.30;;;;;;5113596;28;20094;-69
2022/04/18 12:23:27;;;;;;;4.93;2.70;;;20.20;28.30;;;;;;5113490;28;20038;-69
2022/04/18 12:25:54;;;;;;;4.20;2.70;;;20.40;28.10;;;;;;5113461;28;20088;-69
2022/04/18 12:28:21;;;;;;;4.50;2.63;;;20.50;27.20;;;;;;5113378;28;20031;-70
2022/04/18 12:30:47;;;;;;;4.05;2.60;;;20.50;25.90;;;;;;5113265;28;20125;-70
2022/04/18 12:33:20;;;;;;;5.30;3.13;;;20.40;25.80;;;;;;5113389;28;20023;-69
2022/04/18 12:35:48;;;;;;;4.53;2.80;;;20.30;26.20;;;;;;5113271;28;20032;-68
2022/04/18 12:38:15;;;;;;;4.68;2.67;;;20.30;25.70;;;;;;5113361;28;20072;-69
2022/04/18 12:40:46;;;;;;;4.25;2.78;;;20.30;26.60;;;;;;5094879;28;20028;-70
2022/04/18 12:43:14;;;;;;;4.20;3.15;;;20.50;27.30;;;;;;5113243;28;20027;-69
2022/04/18 12:45:59;;;;;;;4.13;2.78;;;20.60;27.90;;;;;;5113240;28;20070;-70
2022/04/18 12:48:30;;;;;;;3.85;2.65;;;20.90;27.80;;;;;;5113317;28;20028;-69
2022/04/18 12:51:00;;;;;;;4.30;3.20;;;21.10;27.90;;;;;;5113429;28;20027;-69
2022/04/18 12:53:45;;;;;;;5.18;3.10;;;21.20;26.80;;;;;;5113406;28;20083;-69
2022/04/18 12:56:13;;;;;;;4.57;2.72;;;21.10;26.10;;;;;;5113165;28;20123;-69
2022/04/18 12:58:41;;;;;;;3.28;2.15;;;20.70;26.10;;;;;;5113193;28;20047;-69
2022/04/18 13:01:07;;;;;;;4.40;2.60;;;20.60;25.40;;;;;;5113171;28;20022;-68
2022/04/18 13:03:43;;;;;;;5.55;2.45;;;20.60;26.00;;;;;;5113115;28;20024;-70
2022/04/18 13:06:09;;;;;;;4.47;3.17;;;20.60;26.80;;;;;;5095241;28;20095;-68
2022/04/18 13:08:39;;;;;;;4.72;3.67;;;20.60;26.50;;;;;;5113105;28;20024;-68
2022/04/18 13:11:06;;;;;;;4.93;3.50;;;20.80;27.00;;;;;;5113018;28;20083;-68
2022/04/18 13:13:32;;;;;;;4.18;2.83;;;20.90;27.90;;;;;;5113059;28;20105;-69